Time;durP1;ratioP1;P1;durP2;ratioP2;P2;SDS_P1;SDS_P2;PMS_P1;PMS_P2;Temp;Humidity;BMP_temperature;BMP_pressure;BME280_temperature;BME280_humidity;BME280_pressure;Samples;Min_cycle;Max_cycle;Signal;HPM_P1;HPM_P2
2021/11/09 00:00:06;;;;;;;;;;;20.90;56.30;;;;;;3156182;28;20276;-52
2021/11/09 00:01:43;;;;;;;;;;;20.90;56.20;;;;;;3158661;28;19924;-51
2021/11/09 00:03:15;;;;;;;;;;;20.90;56.30;;;;;;3158168;28;19985;-51
2021/11/09 00:04:51;;;;;;;;;;;20.80;56.40;;;;;;3150771;28;19982;-47
2021/11/09 00:06:26;;;;;;;;;;;20.80;56.50;;;;;;3148971;28;20296;-49
2021/11/09 00:08:00;;;;;;;;;;;20.80;56.50;;;;;;3158770;28;19978;-52
2021/11/09 00:09:44;;;;;;;;;;;20.90;56.30;;;;;;3158951;28;19942;-50
2021/11/09 00:11:16;;;;;;;;;;;20.90;56.20;;;;;;3158479;28;19924;-53
2021/11/09 00:12:49;;;;;;;;;;;21.00;56.00;;;;;;3159038;28;20618;-50
2021/11/09 00:14:22;;;;;;;;;;;21.00;55.90;;;;;;3158764;28;19924;-46
2021/11/09 00:15:54;;;;;;;;;;;21.00;55.70;;;;;;3157214;28;19924;-51
2021/11/09 00:17:24;;;;;;;;;;;21.10;55.60;;;;;;3158855;28;19924;-49
2021/11/09 00:18:56;;;;;;;;;;;21.10;55.50;;;;;;3158818;28;20129;-52
2021/11/09 00:20:27;;;;;;;;;;;21.20;55.40;;;;;;3155251;28;19932;-49
2021/11/09 00:21:59;;;;;;;;;;;21.20;55.40;;;;;;3146388;28;20388;-48
2021/11/09 00:23:30;;;;;;;;;;;21.20;55.30;;;;;;3146095;28;19924;-50
2021/11/09 00:25:02;;;;;;;;;;;21.20;55.30;;;;;;3146427;28;19935;-50
2021/11/09 00:26:34;;;;;;;;;;;21.20;55.20;;;;;;3145634;28;19924;-49
2021/11/09 00:28:05;;;;;;;;;;;21.30;55.10;;;;;;3149813;28;19924;-49
2021/11/09 00:29:38;;;;;;;;;;;21.30;55.20;;;;;;3158578;28;19928;-53
2021/11/09 00:31:10;;;;;;;;;;;21.30;55.10;;;;;;3157030;28;19932;-51
2021/11/09 00:32:43;;;;;;;;;;;21.30;55.00;;;;;;3150837;28;20399;-50
2021/11/09 00:34:14;;;;;;;;;;;21.30;54.90;;;;;;3157672;28;19931;-50
2021/11/09 00:35:46;;;;;;;;;;;21.30;54.90;;;;;;3145284;28;19931;-48
2021/11/09 00:37:17;;;;;;;;;;;21.30;54.90;;;;;;3145754;28;19928;-51
2021/11/09 00:38:49;;;;;;;;;;;21.30;55.00;;;;;;3146249;28;19924;-53
2021/11/09 00:40:20;;;;;;;;;;;21.40;54.90;;;;;;3149771;28;19924;-50
2021/11/09 00:41:52;;;;;;;;;;;21.40;54.80;;;;;;3158447;28;19928;-52
2021/11/09 00:43:24;;;;;;;;;;;21.40;54.60;;;;;;3158897;28;19927;-47
2021/11/09 00:44:55;;;;;;;;;;;21.50;54.70;;;;;;3158843;28;20357;-52
2021/11/09 00:46:27;;;;;;;;;;;21.50;54.60;;;;;;3148209;28;20419;-49
2021/11/09 00:47:58;;;;;;;;;;;21.50;54.50;;;;;;3148407;28;19924;-52
2021/11/09 00:49:29;;;;;;;;;;;21.50;54.50;;;;;;3158815;28;19976;-51
2021/11/09 00:51:01;;;;;;;;;;;21.50;54.30;;;;;;3157936;28;19947;-50
2021/11/09 00:52:31;;;;;;;;;;;21.50;54.30;;;;;;3158384;28;19936;-49
2021/11/09 00:54:03;;;;;;;;;;;21.60;54.40;;;;;;3158392;28;19923;-50
2021/11/09 00:55:35;;;;;;;;;;;21.50;54.40;;;;;;3158199;28;19979;-50
2021/11/09 00:57:06;;;;;;;;;;;21.50;54.30;;;;;;3158274;28;19931;-48
2021/11/09 00:58:38;;;;;;;;;;;21.50;54.40;;;;;;3158710;28;19928;-53
2021/11/09 01:00:13;;;;;;;;;;;21.50;54.60;;;;;;3157690;28;19932;-54
2021/11/09 01:01:45;;;;;;;;;;;21.60;54.40;;;;;;3157982;28;20292;-49
2021/11/09 01:03:17;;;;;;;;;;;21.50;54.40;;;;;;3154318;28;19940;-46
2021/11/09 01:04:49;;;;;;;;;;;21.60;54.30;;;;;;3146145;28;20015;-50
2021/11/09 01:06:20;;;;;;;;;;;21.60;54.20;;;;;;3145034;28;20288;-52
2021/11/09 01:07:54;;;;;;;;;;;21.60;54.30;;;;;;3145697;28;19982;-49
2021/11/09 01:09:26;;;;;;;;;;;21.60;54.30;;;;;;3146116;28;19932;-48
2021/11/09 01:10:58;;;;;;;;;;;21.60;54.20;;;;;;3155774;28;19947;-49
2021/11/09 01:12:29;;;;;;;;;;;21.60;54.20;;;;;;3158509;28;20007;-49
2021/11/09 01:14:01;;;;;;;;;;;21.60;54.20;;;;;;3158371;28;19931;-51
2021/11/09 01:15:34;;;;;;;;;;;21.60;54.30;;;;;;3156678;28;19924;-49
2021/11/09 01:17:05;;;;;;;;;;;21.60;54.20;;;;;;3158244;28;19924;-45
2021/11/09 01:18:37;;;;;;;;;;;21.60;54.30;;;;;;3158594;28;19924;-51
2021/11/09 01:20:10;;;;;;;;;;;21.60;54.20;;;;;;3149916;28;19925;-47
2021/11/09 01:21:42;;;;;;;;;;;21.70;54.10;;;;;;3156221;28;19931;-48
2021/11/09 01:23:14;;;;;;;;;;;21.70;54.00;;;;;;3152972;28;19964;-51
2021/11/09 01:24:45;;;;;;;;;;;21.70;54.10;;;;;;3154746;28;19928;-48
2021/11/09 01:26:18;;;;;;;;;;;21.70;54.00;;;;;;3155153;28;20021;-49
2021/11/09 01:27:49;;;;;;;;;;;21.70;53.90;;;;;;3156278;28;19935;-47
2021/11/09 01:29:21;;;;;;;;;;;21.70;53.90;;;;;;3155186;28;19928;-48
2021/11/09 01:30:54;;;;;;;;;;;21.80;53.90;;;;;;3155308;28;20300;-54
2021/11/09 01:32:25;;;;;;;;;;;21.70;53.80;;;;;;3156639;28;19924;-48
2021/11/09 01:33:57;;;;;;;;;;;21.70;53.90;;;;;;3148818;28;20446;-48
2021/11/09 01:35:29;;;;;;;;;;;21.70;53.80;;;;;;3151759;28;19986;-50
2021/11/09 01:37:00;;;;;;;;;;;21.70;53.90;;;;;;3156880;28;20035;-47
2021/11/09 01:38:32;;;;;;;;;;;21.70;53.80;;;;;;3149868;28;19981;-48
2021/11/09 01:40:05;;;;;;;;;;;21.70;53.90;;;;;;3154447;28;19932;-47
2021/11/09 01:41:36;;;;;;;;;;;21.70;54.50;;;;;;3157424;28;20019;-47
2021/11/09 01:43:08;;;;;;;;;;;21.70;54.00;;;;;;3148044;28;19939;-51
2021/11/09 01:44:38;;;;;;;;;;;21.70;54.00;;;;;;3159735;28;19924;-51
2021/11/09 01:46:11;;;;;;;;;;;21.70;53.90;;;;;;3156245;28;20391;-48
2021/11/09 01:47:44;;;;;;;;;;;21.70;53.90;;;;;;3154255;28;20008;-54
2021/11/09 01:49:15;;;;;;;;;;;21.70;53.90;;;;;;3150326;28;19989;-47
2021/11/09 01:50:48;;;;;;;;;;;21.70;53.80;;;;;;3148669;28;20313;-47
2021/11/09 01:52:20;;;;;;;;;;;21.80;53.70;;;;;;3158392;28;19977;-52
2021/11/09 01:53:53;;;;;;;;;;;21.80;53.70;;;;;;3156748;28;20503;-47
2021/11/09 01:55:25;;;;;;;;;;;21.80;53.80;;;;;;3158725;28;20432;-50
2021/11/09 01:56:57;;;;;;;;;;;21.80;53.90;;;;;;3157706;28;20053;-47
2021/11/09 01:58:28;;;;;;;;;;;21.80;53.90;;;;;;3157576;28;20281;-51
2021/11/09 02:00:03;;;;;;;;;;;21.70;53.80;;;;;;3146719;28;20062;-53
2021/11/09 02:01:36;;;;;;;;;;;21.80;53.80;;;;;;3155477;28;20370;-49
2021/11/09 02:03:07;;;;;;;;;;;21.80;53.80;;;;;;3152064;28;19924;-47
2021/11/09 02:04:39;;;;;;;;;;;21.70;53.80;;;;;;3157547;28;20380;-47
2021/11/09 02:06:11;;;;;;;;;;;21.80;53.70;;;;;;3156077;28;19924;-51
2021/11/09 02:07:46;;;;;;;;;;;21.80;53.70;;;;;;3155274;28;19933;-50
2021/11/09 02:09:17;;;;;;;;;;;21.70;53.80;;;;;;3151917;28;20010;-51
2021/11/09 02:10:49;;;;;;;;;;;21.80;53.80;;;;;;3152225;28;19935;-47
2021/11/09 02:12:21;;;;;;;;;;;21.80;53.80;;;;;;3158000;28;20442;-55
2021/11/09 02:13:52;;;;;;;;;;;21.80;53.80;;;;;;3156833;28;19989;-55
2021/11/09 02:15:24;;;;;;;;;;;21.70;53.80;;;;;;3151657;28;20379;-50
2021/11/09 02:16:57;;;;;;;;;;;21.80;53.90;;;;;;3156845;28;19931;-47
2021/11/09 02:18:29;;;;;;;;;;;21.80;53.80;;;;;;3158626;28;20436;-47
2021/11/09 02:20:01;;;;;;;;;;;21.80;53.80;;;;;;3154231;28;19924;-47
2021/11/09 02:21:34;;;;;;;;;;;21.80;53.80;;;;;;3156293;28;19950;-47
2021/11/09 02:23:05;;;;;;;;;;;21.80;53.80;;;;;;3159557;28;19924;-51
2021/11/09 02:24:37;;;;;;;;;;;21.80;53.70;;;;;;3155280;28;19928;-47
2021/11/09 02:26:08;;;;;;;;;;;21.80;53.70;;;;;;3153169;28;19928;-47
2021/11/09 02:27:40;;;;;;;;;;;21.80;53.70;;;;;;3158436;28;19920;-47
2021/11/09 02:29:11;;;;;;;;;;;21.80;53.80;;;;;;3158715;28;20334;-47
2021/11/09 02:30:43;;;;;;;;;;;21.80;53.80;;;;;;3153237;28;20402;-52
2021/11/09 02:32:15;;;;;;;;;;;21.80;53.60;;;;;;3158016;28;19928;-47
2021/11/09 02:33:46;;;;;;;;;;;21.80;53.70;;;;;;3156943;28;20538;-50
2021/11/09 02:35:18;;;;;;;;;;;21.80;53.70;;;;;;3150155;28;19924;-48
2021/11/09 02:36:51;;;;;;;;;;;21.90;53.60;;;;;;3159002;28;19935;-47
2021/11/09 02:38:22;;;;;;;;;;;21.80;53.50;;;;;;3160245;28;19924;-50
2021/11/09 02:39:54;;;;;;;;;;;21.80;53.60;;;;;;3160212;28;19920;-46
2021/11/09 02:41:26;;;;;;;;;;;21.90;53.60;;;;;;3133307;22;20024;-56
2021/11/09 02:42:57;;;;;;;;;;;21.80;53.50;;;;;;3102034;28;19925;-57
2021/11/09 02:44:29;;;;;;;;;;;21.80;53.60;;;;;;3107919;28;20373;-56
2021/11/09 02:47:50;;;;;;;;;;;21.80;53.60;;;;;;3108103;28;20016;-58
2021/11/09 02:49:26;;;;;;;;;;;21.80;53.50;;;;;;3106758;28;19983;-58
2021/11/09 02:51:02;;;;;;;;;;;21.80;53.50;;;;;;3105979;28;19936;-58
2021/11/09 02:52:40;;;;;;;;;;;21.80;53.60;;;;;;3108642;28;19933;-54
2021/11/09 02:54:19;;;;;;;;;;;21.80;53.60;;;;;;3107986;28;19936;-58
2021/11/09 02:55:54;;;;;;;;;;;21.80;53.60;;;;;;3108044;28;19965;-57
2021/11/09 02:57:31;;;;;;;;;;;21.80;53.70;;;;;;3108663;28;20000;-56
2021/11/09 02:59:07;;;;;;;;;;;21.80;53.80;;;;;;3107242;28;19925;-57
2021/11/09 03:00:47;;;;;;;;;;;21.80;53.80;;;;;;3105887;28;20017;-57
2021/11/09 03:02:31;;;;;;;;;;;21.80;53.70;;;;;;3101534;28;19925;-55
2021/11/09 03:04:07;;;;;;;;;;;21.80;53.60;;;;;;3108503;28;19925;-53
2021/11/09 03:05:45;;;;;;;;;;;21.80;53.50;;;;;;3109291;28;20394;-56
2021/11/09 03:07:25;;;;;;;;;;;21.80;53.50;;;;;;3109039;28;19925;-55
2021/11/09 03:09:03;;;;;;;;;;;21.80;53.60;;;;;;3109952;28;20370;-57
2021/11/09 03:10:37;;;;;;;;;;;21.80;53.60;;;;;;3105078;28;19941;-55
2021/11/09 03:12:10;;;;;;;;;;;21.80;53.60;;;;;;3108158;28;19936;-57
2021/11/09 03:13:43;;;;;;;;;;;21.80;53.70;;;;;;3108722;28;19929;-58
2021/11/09 03:15:15;;;;;;;;;;;21.80;53.70;;;;;;3106614;28;20536;-56
2021/11/09 03:16:46;;;;;;;;;;;21.80;53.50;;;;;;3107583;28;19933;-55
2021/11/09 03:18:21;;;;;;;;;;;21.80;53.90;;;;;;3108504;28;19929;-54
2021/11/09 03:19:56;;;;;;;;;;;21.80;53.70;;;;;;3105859;28;19931;-57
2021/11/09 03:40:05;;;;;;;;;;;21.80;53.60;;;;;;3107099;28;19957;-57
2021/11/09 03:45:32;;;;;;;;;;;21.80;53.40;;;;;;3074846;28;19926;-54
2021/11/09 03:47:03;;;;;;;;;;;21.80;53.40;;;;;;3082489;28;19934;-54
2021/11/09 03:48:36;;;;;;;;;;;21.80;53.50;;;;;;3085216;28;19922;-55
2021/11/09 03:50:08;;;;;;;;;;;21.90;53.40;;;;;;3105925;28;20271;-55
2021/11/09 03:51:39;;;;;;;;;;;21.90;53.50;;;;;;3107831;28;19921;-54
2021/11/09 03:53:15;;;;;;;;;;;21.90;53.40;;;;;;3107968;28;19936;-57
2021/11/09 03:54:49;;;;;;;;;;;21.80;53.40;;;;;;3108064;28;19965;-57
2021/11/09 03:56:26;;;;;;;;;;;21.80;53.50;;;;;;3106816;28;20321;-58
2021/11/09 03:58:07;;;;;;;;;;;21.80;53.50;;;;;;3108285;28;19925;-58
2021/11/09 03:59:56;;;;;;;;;;;21.80;53.40;;;;;;3108070;28;19929;-55
2021/11/09 04:01:33;;;;;;;;;;;21.80;53.50;;;;;;3106419;28;19925;-56
2021/11/09 04:03:11;;;;;;;;;;;21.80;53.50;;;;;;3107912;28;19932;-56
2021/11/09 04:04:47;;;;;;;;;;;21.80;53.40;;;;;;3108683;28;19963;-56
2021/11/09 04:06:29;;;;;;;;;;;21.80;53.30;;;;;;3105796;28;20345;-56
2021/11/09 04:08:04;;;;;;;;;;;21.80;53.40;;;;;;3110318;28;19925;-52
2021/11/09 04:09:53;;;;;;;;;;;21.90;53.40;;;;;;3120143;28;19936;-55
2021/11/09 04:11:29;;;;;;;;;;;21.90;53.40;;;;;;3105866;28;19922;-56
2021/11/09 04:13:19;;;;;;;;;;;21.80;53.60;;;;;;3102957;28;19926;-54
2021/11/09 04:14:54;;;;;;;;;;;21.80;53.60;;;;;;3117418;28;20390;-56
2021/11/09 04:16:33;;;;;;;;;;;21.80;53.60;;;;;;3105403;28;20386;-57
2021/11/09 04:20:00;;;;;;;;;;;21.80;53.50;;;;;;3097398;28;20906;-56
2021/11/09 04:21:47;;;;;;;;;;;21.80;53.50;;;;;;3105091;28;19979;-56
2021/11/09 04:29:05;;;;;;;;;;;21.80;53.50;;;;;;3106414;28;20007;-56
2021/11/09 04:32:48;;;;;;;;;;;21.80;53.50;;;;;;3086422;28;20121;-52
2021/11/09 04:52:49;;;;;;;;;;;21.80;53.50;;;;;;3074634;28;20651;-58
2021/11/09 05:01:49;;;;;;;;;;;22.10;52.80;;;;;;3098878;28;19921;-56
2021/11/09 05:09:08;;;;;;;;;;;22.40;52.00;;;;;;3082195;28;20484;-56
2021/11/09 05:10:40;;;;;;;;;;;22.50;51.90;;;;;;3078489;28;19977;-54
2021/11/09 05:12:12;;;;;;;;;;;22.60;51.70;;;;;;3079202;28;19930;-56
2021/11/09 05:13:44;;;;;;;;;;;22.70;51.70;;;;;;3082332;28;20020;-56
2021/11/09 05:15:15;;;;;;;;;;;22.70;51.60;;;;;;3101900;28;19945;-56
2021/11/09 05:16:48;;;;;;;;;;;22.80;51.40;;;;;;3113001;28;19937;-55
2021/11/09 05:18:19;;;;;;;;;;;22.90;51.20;;;;;;3110988;28;20429;-58
2021/11/09 05:19:50;;;;;;;;;;;23.00;51.10;;;;;;3108417;28;19921;-54
2021/11/09 05:21:22;;;;;;;;;;;23.10;50.90;;;;;;3107640;28;19925;-54
2021/11/09 05:22:53;;;;;;;;;;;23.10;50.80;;;;;;3109782;28;19926;-53
2021/11/09 05:24:25;;;;;;;;;;;23.20;50.60;;;;;;3110300;28;19925;-53
2021/11/09 05:25:56;;;;;;;;;;;23.30;50.50;;;;;;3107802;28;20528;-57
2021/11/09 05:27:28;;;;;;;;;;;23.30;50.30;;;;;;3110236;28;19975;-54
2021/11/09 05:29:00;;;;;;;;;;;23.40;50.20;;;;;;3107707;28;19956;-54
2021/11/09 05:30:31;;;;;;;;;;;23.40;50.10;;;;;;3101485;28;19983;-58
2021/11/09 05:32:04;;;;;;;;;;;23.50;50.00;;;;;;3108152;28;19930;-54
2021/11/09 05:33:36;;;;;;;;;;;23.60;49.90;;;;;;3104807;28;19945;-55
2021/11/09 05:35:08;;;;;;;;;;;23.60;50.00;;;;;;3109873;28;19933;-57
2021/11/09 05:36:41;;;;;;;;;;;23.60;50.30;;;;;;3108135;28;20594;-52
2021/11/09 05:38:15;;;;;;;;;;;23.60;50.50;;;;;;3107606;28;19925;-55
2021/11/09 05:39:49;;;;;;;;;;;23.60;50.60;;;;;;3112110;28;19925;-52
2021/11/09 05:41:22;;;;;;;;;;;23.60;51.00;;;;;;3107690;28;19932;-58
2021/11/09 05:42:53;;;;;;;;;;;23.60;51.00;;;;;;3105694;28;19925;-57
2021/11/09 05:44:25;;;;;;;;;;;23.60;50.90;;;;;;3107039;28;19929;-58
2021/11/09 05:45:57;;;;;;;;;;;23.50;50.80;;;;;;3108463;28;19925;-55
2021/11/09 05:47:29;;;;;;;;;;;23.40;51.00;;;;;;3110535;28;19930;-53
2021/11/09 05:49:01;;;;;;;;;;;23.30;51.20;;;;;;3112251;28;19932;-54
2021/11/09 05:50:33;;;;;;;;;;;23.40;51.50;;;;;;3109055;28;19934;-57
2021/11/09 05:52:04;;;;;;;;;;;23.40;51.50;;;;;;3114411;28;19937;-55
2021/11/09 05:53:36;;;;;;;;;;;23.40;51.50;;;;;;3119320;28;19948;-54
2021/11/09 05:55:08;;;;;;;;;;;23.40;51.60;;;;;;3107953;28;20330;-54
2021/11/09 05:56:39;;;;;;;;;;;23.40;51.80;;;;;;3105875;28;19926;-55
2021/11/09 05:58:11;;;;;;;;;;;23.40;51.70;;;;;;3112078;28;19926;-51
2021/11/09 05:59:43;;;;;;;;;;;23.40;51.80;;;;;;3108798;28;19934;-53
2021/11/09 06:01:14;;;;;;;;;;;23.40;51.90;;;;;;3107665;28;19980;-54
2021/11/09 06:02:48;;;;;;;;;;;23.30;51.90;;;;;;3105315;28;20926;-55
2021/11/09 06:04:19;;;;;;;;;;;23.40;51.80;;;;;;3108366;28;19926;-56
2021/11/09 06:05:51;;;;;;;;;;;23.30;51.70;;;;;;3110374;28;19925;-54
2021/11/09 06:07:22;;;;;;;;;;;23.30;51.70;;;;;;3107622;28;19932;-52
2021/11/09 06:08:54;;;;;;;;;;;23.30;51.80;;;;;;3108156;28;19929;-55
2021/11/09 06:10:25;;;;;;;;;;;23.30;51.80;;;;;;3106726;28;19925;-55
2021/11/09 06:11:57;;;;;;;;;;;23.30;51.70;;;;;;3106946;28;19952;-56
2021/11/09 06:13:28;;;;;;;;;;;23.30;51.70;;;;;;3115509;28;20117;-54
2021/11/09 06:15:00;;;;;;;;;;;23.20;51.80;;;;;;3111461;28;19930;-51
2021/11/09 06:16:32;;;;;;;;;;;23.20;51.80;;;;;;3107378;28;20293;-51
2021/11/09 06:18:04;;;;;;;;;;;23.20;52.00;;;;;;3109803;28;19976;-55
2021/11/09 06:19:36;;;;;;;;;;;23.20;52.10;;;;;;3107853;28;19929;-52
2021/11/09 06:21:07;;;;;;;;;;;23.10;52.10;;;;;;3107867;28;19926;-54
2021/11/09 06:22:39;;;;;;;;;;;23.10;52.20;;;;;;3101070;28;20089;-51
2021/11/09 06:24:11;;;;;;;;;;;23.10;52.10;;;;;;3106240;28;19925;-52
2021/11/09 06:25:43;;;;;;;;;;;23.10;52.80;;;;;;3104008;28;19930;-53
2021/11/09 06:27:18;;;;;;;;;;;23.10;52.30;;;;;;3106833;28;19979;-55
2021/11/09 06:28:51;;;;;;;;;;;23.00;52.40;;;;;;3105480;28;19999;-53
2021/11/09 06:30:23;;;;;;;;;;;23.00;52.30;;;;;;3101716;28;20496;-55
2021/11/09 06:31:56;;;;;;;;;;;23.00;52.40;;;;;;3109618;28;19925;-53
2021/11/09 06:33:30;;;;;;;;;;;23.00;52.20;;;;;;3109102;28;19929;-54
2021/11/09 06:35:02;;;;;;;;;;;23.10;52.20;;;;;;3109264;28;20298;-56
2021/11/09 06:36:33;;;;;;;;;;;23.10;52.00;;;;;;3108437;28;19929;-51
2021/11/09 06:38:06;;;;;;;;;;;23.20;52.00;;;;;;3110140;28;20009;-52
2021/11/09 06:39:38;;;;;;;;;;;23.20;51.80;;;;;;3114896;28;19929;-55
2021/11/09 06:41:10;;;;;;;;;;;23.20;51.70;;;;;;3107898;28;20282;-55
2021/11/09 06:42:42;;;;;;;;;;;23.30;51.70;;;;;;3097509;28;19948;-52
2021/11/09 06:44:13;;;;;;;;;;;23.30;51.40;;;;;;3107073;28;19940;-52
2021/11/09 06:45:45;;;;;;;;;;;23.40;51.40;;;;;;3106003;28;19925;-55
2021/11/09 06:47:17;;;;;;;;;;;23.40;51.30;;;;;;3106235;28;20012;-54
2021/11/09 06:48:49;;;;;;;;;;;23.50;51.10;;;;;;3101540;28;19926;-53
2021/11/09 06:50:21;;;;;;;;;;;23.50;51.10;;;;;;3107514;28;19932;-55
2021/11/09 06:51:53;;;;;;;;;;;23.50;51.10;;;;;;3108377;28;19925;-56
2021/11/09 06:53:27;;;;;;;;;;;23.50;50.90;;;;;;3107786;28;19932;-51
2021/11/09 06:54:59;;;;;;;;;;;23.50;50.80;;;;;;3107789;28;19925;-55
2021/11/09 06:56:30;;;;;;;;;;;23.60;50.80;;;;;;3107452;28;19930;-51
2021/11/09 06:58:02;;;;;;;;;;;23.60;50.80;;;;;;3108645;28;19929;-55
2021/11/09 06:59:34;;;;;;;;;;;23.60;50.80;;;;;;3107729;28;19929;-55
2021/11/09 07:01:05;;;;;;;;;;;23.60;50.70;;;;;;3099152;28;20386;-54
2021/11/09 07:02:37;;;;;;;;;;;23.60;50.80;;;;;;3104510;28;19926;-53
2021/11/09 07:04:10;;;;;;;;;;;23.60;50.90;;;;;;3100924;28;20353;-50
2021/11/09 07:05:42;;;;;;;;;;;23.60;50.80;;;;;;3105059;28;19929;-53
2021/11/09 07:07:14;;;;;;;;;;;23.60;50.80;;;;;;3107730;28;19933;-53
2021/11/09 07:08:45;;;;;;;;;;;23.60;50.80;;;;;;3109791;28;19932;-55
2021/11/09 07:10:17;;;;;;;;;;;23.60;50.90;;;;;;3108329;28;19960;-54
2021/11/09 07:11:48;;;;;;;;;;;23.60;51.50;;;;;;3107284;28;19933;-53
2021/11/09 07:13:20;;;;;;;;;;;23.60;50.90;;;;;;3103575;28;20702;-55
2021/11/09 07:14:52;;;;;;;;;;;23.50;50.90;;;;;;3107259;28;19933;-52
2021/11/09 07:16:24;;;;;;;;;;;23.50;51.00;;;;;;3106033;28;19933;-56
2021/11/09 07:17:56;;;;;;;;;;;23.50;51.00;;;;;;3105785;28;19925;-51
2021/11/09 07:19:28;;;;;;;;;;;23.50;51.00;;;;;;3108593;28;19949;-53
2021/11/09 07:21:00;;;;;;;;;;;23.50;51.10;;;;;;3107401;28;19925;-56
2021/11/09 07:22:33;;;;;;;;;;;23.40;51.00;;;;;;3105726;28;19932;-55
2021/11/09 07:24:04;;;;;;;;;;;23.40;51.20;;;;;;3106770;28;19934;-54
2021/11/09 07:25:36;;;;;;;;;;;23.40;51.10;;;;;;3104987;28;19925;-53
2021/11/09 07:27:08;;;;;;;;;;;23.40;51.20;;;;;;3107062;28;19933;-52
2021/11/09 07:28:41;;;;;;;;;;;23.40;51.30;;;;;;3107552;28;19929;-56
2021/11/09 07:30:13;;;;;;;;;;;23.30;51.30;;;;;;3104258;28;19929;-54
2021/11/09 07:31:44;;;;;;;;;;;23.30;51.40;;;;;;3106343;28;19936;-56
2021/11/09 07:33:16;;;;;;;;;;;23.30;51.50;;;;;;3106327;28;19926;-52
2021/11/09 07:34:49;;;;;;;;;;;23.30;51.50;;;;;;3107970;28;19934;-54
2021/11/09 07:36:21;;;;;;;;;;;23.20;51.60;;;;;;3107594;28;19936;-54
2021/11/09 07:37:53;;;;;;;;;;;23.20;51.70;;;;;;3107347;28;20390;-53
2021/11/09 07:39:25;;;;;;;;;;;23.30;51.70;;;;;;3106941;28;19933;-53
2021/11/09 07:40:58;;;;;;;;;;;23.20;51.60;;;;;;3103845;28;19929;-53
2021/11/09 07:42:30;;;;;;;;;;;23.00;51.30;;;;;;3107237;28;19929;-52
2021/11/09 07:44:06;;;;;;;;;;;22.90;51.30;;;;;;3107766;28;20024;-54
2021/11/09 07:45:39;;;;;;;;;;;22.70;51.50;;;;;;3088916;28;20499;-54
2021/11/09 07:47:11;;;;;;;;;;;22.70;51.90;;;;;;3107786;28;19933;-52
2021/11/09 07:48:43;;;;;;;;;;;22.50;52.10;;;;;;3108674;28;20330;-55
2021/11/09 07:50:16;;;;;;;;;;;22.50;52.30;;;;;;3105528;28;20016;-54
2021/11/09 07:51:49;;;;;;;;;;;22.40;52.40;;;;;;3096408;28;20298;-51
2021/11/09 07:53:22;;;;;;;;;;;22.40;52.40;;;;;;3108478;28;20441;-54
2021/11/09 07:54:59;;;;;;;;;;;22.40;52.30;;;;;;3107281;28;20383;-56
2021/11/09 07:56:32;;;;;;;;;;;22.40;51.90;;;;;;3102825;28;19929;-56
2021/11/09 07:58:08;;;;;;;;;;;22.40;51.70;;;;;;3107608;28;19933;-55
2021/11/09 07:59:46;;;;;;;;;;;22.40;51.60;;;;;;3106302;28;20011;-55
2021/11/09 08:01:21;;;;;;;;;;;22.50;50.50;;;;;;3095562;28;20386;-55
2021/11/09 08:04:51;;;;;;;;;;;22.60;50.30;;;;;;3091504;28;19928;-57
2021/11/09 08:06:25;;;;;;;;;;;22.70;50.50;;;;;;3101773;28;19925;-52
2021/11/09 08:08:02;;;;;;;;;;;22.80;51.40;;;;;;3106507;28;19932;-56
2021/11/09 08:09:35;;;;;;;;;;;22.90;51.60;;;;;;3096812;28;19930;-56
2021/11/09 08:11:07;;;;;;;;;;;22.90;51.40;;;;;;3115268;28;19980;-55
2021/11/09 08:12:39;;;;;;;;;;;23.00;50.90;;;;;;3101883;28;20402;-55
2021/11/09 08:14:11;;;;;;;;;;;23.00;50.80;;;;;;3106333;28;19929;-53
2021/11/09 08:15:42;;;;;;;;;;;23.10;50.90;;;;;;3106928;28;19925;-54
2021/11/09 08:17:15;;;;;;;;;;;23.10;50.70;;;;;;3108633;28;20174;-57
2021/11/09 08:18:47;;;;;;;;;;;23.10;50.60;;;;;;3104562;28;20005;-55
2021/11/09 08:20:19;;;;;;;;;;;23.20;50.60;;;;;;3104536;28;19929;-54
2021/11/09 08:21:53;;;;;;;;;;;23.20;50.90;;;;;;3107426;28;19978;-56
2021/11/09 08:23:24;;;;;;;;;;;23.20;51.30;;;;;;3104752;28;20000;-57
2021/11/09 08:24:56;;;;;;;;;;;23.20;51.20;;;;;;3105462;28;20382;-54
2021/11/09 08:26:28;;;;;;;;;;;23.10;51.30;;;;;;3104371;28;19932;-52
2021/11/09 08:28:01;;;;;;;;;;;23.10;51.50;;;;;;3109489;28;19970;-55
2021/11/09 08:29:34;;;;;;;;;;;23.00;51.50;;;;;;3113417;28;19926;-56
2021/11/09 08:31:08;;;;;;;;;;;23.00;52.40;;;;;;3106514;28;19925;-57
2021/11/09 08:32:42;;;;;;;;;;;23.20;52.00;;;;;;3105637;28;19932;-55
2021/11/09 08:34:14;;;;;;;;;;;23.40;51.40;;;;;;3107638;28;20340;-55
2021/11/09 08:35:46;;;;;;;;;;;23.40;51.20;;;;;;3107006;28;19929;-56
2021/11/09 08:37:20;;;;;;;;;;;23.30;51.50;;;;;;3104257;28;20424;-57
2021/11/09 08:38:51;;;;;;;;;;;23.10;52.80;;;;;;3108206;28;19933;-56
2021/11/09 08:40:24;;;;;;;;;;;23.10;53.40;;;;;;3105530;28;20040;-55
2021/11/09 08:42:10;;;;;;;;;;;23.00;53.50;;;;;;3233329;23;19924;-48
2021/11/09 08:43:53;;;;;;;;;;;23.00;53.50;;;;;;3171375;28;19930;-54
2021/11/09 08:45:31;;;;;;;;;;;23.10;53.40;;;;;;3170325;28;19939;-53
2021/11/09 08:47:04;;;;;;;;;;;23.00;53.20;;;;;;3171512;28;19973;-49
2021/11/09 08:48:38;;;;;;;;;;;23.00;53.10;;;;;;3171165;28;19924;-48
2021/11/09 08:50:12;;;;;;;;;;;23.10;53.00;;;;;;3171505;28;19934;-50
2021/11/09 08:51:44;;;;;;;;;;;23.00;53.00;;;;;;3170728;28;19935;-49
2021/11/09 08:53:20;;;;;;;;;;;22.80;53.20;;;;;;3171414;28;19946;-47
2021/11/09 08:54:59;;;;;;;;;;;22.80;53.50;;;;;;3171337;28;19924;-46
2021/11/09 08:56:45;;;;;;;;;;;22.70;53.70;;;;;;3170397;28;19931;-51
2021/11/09 08:58:34;;;;;;;;;;;22.60;53.80;;;;;;3171561;28;20266;-47
2021/11/09 09:05:24;;;;;;;;;;;22.50;54.10;;;;;;3170718;28;19919;-51
2021/11/09 09:06:59;;;;;;;;;;;22.50;54.20;;;;;;3171124;28;19924;-52
2021/11/09 09:08:32;;;;;;;;;;;22.50;55.00;;;;;;3171464;28;20418;-53
2021/11/09 09:10:04;;;;;;;;;;;22.50;54.40;;;;;;3171245;28;19924;-48
2021/11/09 09:11:36;;;;;;;;;;;22.50;54.50;;;;;;3170448;28;19977;-48
2021/11/09 09:13:08;;;;;;;;;;;22.50;54.50;;;;;;3171271;28;19924;-50
2021/11/09 09:14:40;;;;;;;;;;;22.50;54.50;;;;;;3171406;28;20421;-49
2021/11/09 09:16:11;;;;;;;;;;;22.50;54.50;;;;;;3170042;28;20320;-50
2021/11/09 09:17:43;;;;;;;;;;;22.60;54.50;;;;;;3170966;28;19930;-50
2021/11/09 09:19:14;;;;;;;;;;;22.60;54.30;;;;;;3171165;28;20032;-53
2021/11/09 09:20:46;;;;;;;;;;;22.60;54.40;;;;;;3169466;28;20028;-50
2021/11/09 09:22:20;;;;;;;;;;;22.70;54.30;;;;;;3171020;28;19930;-52
2021/11/09 09:23:56;;;;;;;;;;;22.70;54.10;;;;;;3171300;28;20329;-51
2021/11/09 09:25:39;;;;;;;;;;;22.80;54.00;;;;;;3170730;28;19923;-52
2021/11/09 09:27:20;;;;;;;;;;;22.80;54.00;;;;;;3171174;28;19927;-48
2021/11/09 09:31:09;;;;;;;;;;;22.80;54.00;;;;;;3130955;28;20399;-50
2021/11/09 09:32:59;;;;;;;;;;;22.90;53.90;;;;;;3131990;28;19975;-53
2021/11/09 09:55:03;;;;;;;;;;;23.10;55.70;;;;;;3170052;28;20443;-48
2021/11/09 09:56:44;;;;;;;;;;;23.10;55.60;;;;;;3161259;28;19973;-48
2021/11/09 09:58:16;;;;;;;;;;;23.20;55.30;;;;;;3170837;28;19963;-51
2021/11/09 09:59:51;;;;;;;;;;;23.30;55.10;;;;;;3171069;28;20343;-51
2021/11/09 10:01:23;;;;;;;;;;;23.40;55.00;;;;;;3169355;28;20018;-49
2021/11/09 10:02:55;;;;;;;;;;;23.40;55.20;;;;;;3173449;28;20287;-48
2021/11/09 10:04:29;;;;;;;;;;;23.50;55.10;;;;;;3173414;28;19924;-50
2021/11/09 10:06:02;;;;;;;;;;;23.50;55.10;;;;;;3173036;28;20371;-49
2021/11/09 10:07:34;;;;;;;;;;;23.50;55.20;;;;;;3173528;28;20334;-52
2021/11/09 10:09:06;;;;;;;;;;;23.50;55.30;;;;;;3173562;28;20303;-50
2021/11/09 10:10:38;;;;;;;;;;;23.50;55.20;;;;;;3173135;28;19924;-49
2021/11/09 10:12:22;;;;;;;;;;;23.50;55.30;;;;;;3172942;28;19977;-48
2021/11/09 10:13:54;;;;;;;;;;;23.50;55.40;;;;;;3173166;28;19924;-51
2021/11/09 10:15:27;;;;;;;;;;;23.40;56.30;;;;;;3171567;28;19924;-50
2021/11/09 10:17:08;;;;;;;;;;;23.40;56.30;;;;;;3172931;28;20014;-52
2021/11/09 10:18:42;;;;;;;;;;;23.40;56.20;;;;;;3173163;28;20378;-48
2021/11/09 10:20:15;;;;;;;;;;;23.40;56.40;;;;;;3172994;28;19931;-48
2021/11/09 10:21:47;;;;;;;;;;;23.40;56.40;;;;;;3172478;28;20248;-50
2021/11/09 10:23:19;;;;;;;;;;;23.40;56.40;;;;;;3173233;28;19924;-49
2021/11/09 10:24:50;;;;;;;;;;;23.40;56.50;;;;;;3171965;28;19931;-50
2021/11/09 10:26:24;;;;;;;;;;;23.30;56.50;;;;;;3169330;28;19931;-48
2021/11/09 10:27:58;;;;;;;;;;;23.30;56.50;;;;;;3171859;28;19969;-48
2021/11/09 10:29:39;;;;;;;;;;;23.30;56.80;;;;;;3170255;28;20316;-52
2021/11/09 10:31:11;;;;;;;;;;;23.30;56.70;;;;;;3170316;28;20380;-48
2021/11/09 10:32:44;;;;;;;;;;;23.40;56.80;;;;;;3172029;28;20464;-48
2021/11/09 10:34:21;;;;;;;;;;;23.40;56.80;;;;;;3173043;28;19973;-50
2021/11/09 10:35:52;;;;;;;;;;;23.40;56.70;;;;;;3172278;28;19924;-51
2021/11/09 10:37:26;;;;;;;;;;;23.50;56.50;;;;;;3172772;28;19924;-48